Time;durP1;ratioP1;P1;durP2;ratioP2;P2;SDS_P1;SDS_P2;PMS_P1;PMS_P2;Temp;Humidity;BMP_temperature;BMP_pressure;BME280_temperature;BME280_humidity;BME280_pressure;Samples;Min_cycle;Max_cycle;Signal;HPM_P1;HPM_P2
2023/10/18 00:00:24;;;;;;;3.97;1.65;;;10.60;97.20;;;;;;4992467;28;20073;-16
2023/10/18 00:02:51;;;;;;;4.05;1.80;;;10.60;97.20;;;;;;5017525;28;20092;-16
2023/10/18 00:05:18;;;;;;;4.03;1.92;;;10.50;97.10;;;;;;5002282;28;20722;-16
2023/10/18 00:07:44;;;;;;;2.73;1.70;;;10.50;97.10;;;;;;4994711;28;20014;-17
2023/10/18 00:10:11;;;;;;;3.35;1.67;;;10.50;97.20;;;;;;4996582;28;20018;-17
2023/10/18 00:12:38;;;;;;;3.17;1.67;;;10.50;97.20;;;;;;5006035;28;20583;-17
2023/10/18 00:15:05;;;;;;;2.95;1.60;;;10.50;97.20;;;;;;4996621;28;20287;-17
2023/10/18 00:17:32;;;;;;;3.38;1.98;;;10.40;97.10;;;;;;4981267;28;20495;-17
2023/10/18 00:19:58;;;;;;;3.43;1.93;;;10.40;97.20;;;;;;4986382;28;20409;-17
2023/10/18 00:22:24;;;;;;;3.78;1.67;;;10.40;97.20;;;;;;5004339;28;20627;-17
2023/10/18 00:24:50;;;;;;;3.20;1.65;;;10.40;97.30;;;;;;5000101;28;20037;-17
2023/10/18 00:27:15;;;;;;;3.33;1.67;;;10.30;97.30;;;;;;4989446;28;20075;-17
2023/10/18 00:29:43;;;;;;;3.35;1.77;;;10.30;97.40;;;;;;4999227;28;20044;-17
2023/10/18 00:32:09;;;;;;;3.55;2.00;;;10.30;97.40;;;;;;4978696;28;20029;-17
2023/10/18 00:34:35;;;;;;;2.77;1.60;;;10.30;97.30;;;;;;4991416;28;20026;-17
2023/10/18 00:37:01;;;;;;;3.08;1.70;;;10.30;97.30;;;;;;4996140;28;20075;-17
2023/10/18 00:39:27;;;;;;;4.15;1.80;;;10.20;97.30;;;;;;5003657;28;20040;-17
2023/10/18 00:42:23;;;;;;;3.83;1.92;;;10.20;97.30;;;;;;4993439;28;20408;-17
2023/10/18 00:44:49;;;;;;;4.33;2.00;;;10.20;97.20;;;;;;5003428;28;20585;-17
2023/10/18 00:47:16;;;;;;;3.55;2.10;;;10.20;97.30;;;;;;4994207;28;21289;-17
2023/10/18 00:49:43;;;;;;;2.88;1.90;;;10.10;97.30;;;;;;5007734;28;20013;-17
2023/10/18 00:52:10;;;;;;;3.78;2.00;;;9.50;99.40;;;;;;4983387;28;20411;-17
2023/10/18 00:54:38;;;;;;;3.35;1.88;;;10.10;97.40;;;;;;5007916;28;20048;-17
2023/10/18 00:57:04;;;;;;;3.20;1.90;;;10.10;97.30;;;;;;5008864;28;20422;-17
2023/10/18 00:59:30;;;;;;;3.08;1.90;;;10.20;97.40;;;;;;5000564;28;20029;-17
2023/10/18 01:02:03;;;;;;;4.00;1.95;;;10.00;97.40;;;;;;5005656;28;20499;-17
2023/10/18 01:04:34;;;;;;;2.80;1.80;;;10.00;97.40;;;;;;4985050;28;20022;-17
2023/10/18 01:07:11;;;;;;;3.33;1.98;;;10.00;97.70;;;;;;4996730;28;20691;-17
2023/10/18 01:09:36;;;;;;;3.50;1.93;;;10.00;97.40;;;;;;5003756;28;20030;-17
2023/10/18 01:12:03;;;;;;;4.63;2.05;;;10.00;97.40;;;;;;4979559;28;20412;-17
2023/10/18 01:14:28;;;;;;;3.30;1.83;;;9.90;97.50;;;;;;5003956;28;20041;-17
2023/10/18 01:16:54;;;;;;;2.70;1.50;;;9.60;99.70;;;;;;5000400;28;20037;-17
2023/10/18 01:19:22;;;;;;;3.63;2.22;;;9.90;97.60;;;;;;4983453;28;20686;-16
2023/10/18 01:21:51;;;;;;;5.43;2.67;;;9.90;97.60;;;;;;5000676;28;20033;-16
2023/10/18 01:24:18;;;;;;;5.60;3.05;;;9.40;99.80;;;;;;5006589;28;20029;-16
2023/10/18 01:26:44;;;;;;;6.07;3.67;;;9.80;97.70;;;;;;5007068;28;20030;-16
2023/10/18 01:29:10;;;;;;;8.05;3.90;;;9.80;97.80;;;;;;4990581;28;20087;-16
2023/10/18 01:31:39;;;;;;;6.68;4.18;;;9.90;97.80;;;;;;5016386;28;20061;-16
2023/10/18 01:34:05;;;;;;;6.13;3.67;;;9.80;97.80;;;;;;4985773;28;20491;-16
2023/10/18 01:36:38;;;;;;;7.10;4.15;;;9.80;97.90;;;;;;4998939;28;20033;-16
2023/10/18 01:39:09;;;;;;;6.93;4.07;;;9.80;97.90;;;;;;5003798;28;20132;-17
2023/10/18 01:41:37;;;;;;;8.25;4.57;;;9.80;97.90;;;;;;5006013;28;20502;-16
2023/10/18 01:44:07;;;;;;;8.02;4.68;;;9.80;97.90;;;;;;4989891;28;20034;-16
2023/10/18 01:46:35;;;;;;;6.50;3.97;;;9.80;97.80;;;;;;4995539;28;20022;-16
2023/10/18 01:49:01;;;;;;;6.90;3.72;;;9.80;97.80;;;;;;5005059;28;20018;-16
2023/10/18 01:51:28;;;;;;;6.73;3.70;;;9.80;97.80;;;;;;4992856;28;20033;-16
2023/10/18 01:54:02;;;;;;;5.70;3.53;;;9.80;97.80;;;;;;5006715;28;20526;-16
2023/10/18 01:56:28;;;;;;;7.00;3.85;;;9.70;97.80;;;;;;5016491;28;20033;-16
2023/10/18 01:58:54;;;;;;;4.97;3.00;;;9.70;97.80;;;;;;4992646;28;20141;-16
2023/10/18 02:01:21;;;;;;;4.72;2.55;;;9.70;97.90;;;;;;5005666;28;20606;-16
2023/10/18 02:03:50;;;;;;;4.75;2.92;;;9.70;98.00;;;;;;4983685;28;20115;-16
2023/10/18 02:06:15;;;;;;;4.20;2.50;;;9.70;98.00;;;;;;4985940;28;20014;-16
2023/10/18 02:08:41;;;;;;;4.03;2.40;;;9.70;98.00;;;;;;4996983;28;20718;-16
2023/10/18 02:11:09;;;;;;;4.43;2.25;;;9.70;98.00;;;;;;5008276;28;20037;-16
2023/10/18 02:13:39;;;;;;;4.20;2.30;;;9.70;98.10;;;;;;4991593;28;20486;-16
2023/10/18 02:16:06;;;;;;;4.07;2.33;;;9.50;99.90;;;;;;4989633;28;20041;-16
2023/10/18 02:18:33;;;;;;;4.83;1.90;;;9.60;98.10;;;;;;5007482;28;20092;-16
2023/10/18 02:21:00;;;;;;;3.50;2.00;;;9.70;98.20;;;;;;4990218;28;20057;-16
2023/10/18 02:23:34;;;;;;;3.80;2.30;;;9.70;98.20;;;;;;4994615;28;20025;-16
2023/10/18 02:26:09;;;;;;;4.43;2.15;;;9.70;98.20;;;;;;5004089;28;20227;-16
2023/10/18 02:28:36;;;;;;;3.08;1.80;;;9.60;98.20;;;;;;5008954;28;20030;-16
2023/10/18 02:33:38;;;;;;;3.53;1.85;;;9.60;98.30;;;;;;5001428;28;20025;-16
2023/10/18 02:36:20;;;;;;;2.97;1.80;;;9.70;98.40;;;;;;4983743;28;20184;-16
2023/10/18 02:38:46;;;;;;;2.72;1.70;;;9.70;98.30;;;;;;4995920;28;20026;-16
2023/10/18 02:41:15;;;;;;;3.47;1.90;;;9.70;98.40;;;;;;5000499;28;20057;-16
2023/10/18 02:43:49;;;;;;;3.92;1.85;;;9.70;98.40;;;;;;5004830;28;20125;-16
2023/10/18 02:46:20;;;;;;;2.80;1.70;;;9.70;98.30;;;;;;4993433;28;20033;-16
2023/10/18 02:48:47;;;;;;;2.92;1.70;;;9.70;98.30;;;;;;5003636;28;20029;-16
2023/10/18 02:51:14;;;;;;;3.20;1.80;;;9.60;98.40;;;;;;4998433;28;20321;-16
2023/10/18 02:53:43;;;;;;;3.10;1.70;;;9.60;98.40;;;;;;4982282;28;20051;-16
2023/10/18 02:56:20;;;;;;;3.20;1.80;;;9.70;98.80;;;;;;4978490;28;20036;-16
2023/10/18 02:58:47;;;;;;;3.45;1.80;;;9.60;98.50;;;;;;5004900;28;20033;-16
2023/10/18 03:01:18;;;;;;;2.95;1.85;;;9.70;98.50;;;;;;4991696;28;20034;-16
2023/10/18 03:03:52;;;;;;;4.10;2.10;;;9.70;98.60;;;;;;5006830;28;20383;-16
2023/10/18 03:06:19;;;;;;;4.03;2.10;;;9.70;98.70;;;;;;4998843;28;20184;-16
2023/10/18 03:08:49;;;;;;;3.67;2.00;;;9.70;98.70;;;;;;4984370;28;20562;-16
2023/10/18 03:11:15;;;;;;;3.22;1.80;;;9.70;98.80;;;;;;4995269;28;20456;-16
2023/10/18 03:13:42;;;;;;;3.15;1.85;;;9.70;98.80;;;;;;5009195;28;20032;-16
2023/10/18 03:18:44;;;;;;;3.27;1.93;;;9.70;98.90;;;;;;5006250;28;20036;-16
2023/10/18 03:21:20;;;;;;;3.22;1.90;;;9.70;98.90;;;;;;5002277;28;20256;-16
2023/10/18 03:23:51;;;;;;;3.70;1.98;;;9.70;98.90;;;;;;4985699;28;20650;-16
2023/10/18 03:26:23;;;;;;;4.45;2.10;;;9.70;98.90;;;;;;4995744;28;20458;-16
2023/10/18 03:28:52;;;;;;;4.18;2.10;;;9.70;98.90;;;;;;5008660;28;20087;-16
2023/10/18 03:31:27;;;;;;;3.27;1.70;;;9.80;98.90;;;;;;4993240;28;20566;-16
2023/10/18 03:34:09;;;;;;;3.33;1.80;;;9.70;99.00;;;;;;5003997;28;20045;-16
2023/10/18 03:36:48;;;;;;;3.53;1.90;;;8.80;99.90;;;;;;5004418;28;20435;-16
2023/10/18 03:39:17;;;;;;;4.60;2.30;;;9.80;99.00;;;;;;4984112;28;20918;-18
2023/10/18 03:41:43;;;;;;;3.92;1.98;;;9.80;99.10;;;;;;4994522;28;20030;-17
2023/10/18 03:44:09;;;;;;;4.17;2.00;;;9.80;99.10;;;;;;5006630;28;20457;-17
2023/10/18 03:46:40;;;;;;;3.55;1.90;;;9.80;99.10;;;;;;5004786;28;20022;-17
2023/10/18 03:49:10;;;;;;;4.53;2.10;;;9.80;99.10;;;;;;4992088;28;20028;-17
2023/10/18 03:51:40;;;;;;;3.25;2.00;;;9.80;99.10;;;;;;4995050;28;20612;-17
2023/10/18 03:54:08;;;;;;;3.23;1.83;;;9.80;99.10;;;;;;5006460;28;20025;-17
2023/10/18 03:56:36;;;;;;;3.33;1.92;;;9.80;99.10;;;;;;4975296;28;20687;-18
2023/10/18 03:59:20;;;;;;;4.03;2.10;;;9.80;99.00;;;;;;5005177;28;20040;-17
2023/10/18 04:02:06;;;;;;;3.67;2.28;;;9.80;98.90;;;;;;4994971;28;20846;-18
2023/10/18 04:04:38;;;;;;;4.03;2.00;;;9.80;98.90;;;;;;4985140;28;20228;-17
2023/10/18 04:07:13;;;;;;;4.50;2.10;;;9.60;99.90;;;;;;5003784;28;20053;-17
2023/10/18 04:09:40;;;;;;;3.78;2.00;;;9.80;98.90;;;;;;4996996;28;20382;-19
2023/10/18 04:12:08;;;;;;;3.17;2.00;;;9.80;98.90;;;;;;4983299;28;20065;-17
2023/10/18 04:14:34;;;;;;;3.75;2.00;;;9.70;98.90;;;;;;5002679;28;20048;-17
2023/10/18 04:17:06;;;;;;;3.80;1.97;;;9.70;98.90;;;;;;5002123;28;20033;-17
2023/10/18 04:19:32;;;;;;;4.47;2.10;;;9.70;98.80;;;;;;5002360;28;20637;-17
2023/10/18 04:22:03;;;;;;;3.83;1.88;;;9.70;98.80;;;;;;5007150;28;21576;-17
2023/10/18 04:24:28;;;;;;;3.85;2.10;;;9.70;98.80;;;;;;4996237;28;20025;-17
2023/10/18 04:26:56;;;;;;;4.13;2.20;;;9.70;98.80;;;;;;4971483;28;20096;-17
2023/10/18 04:29:26;;;;;;;3.55;1.90;;;9.60;98.80;;;;;;5007284;28;20026;-17
2023/10/18 04:31:56;;;;;;;3.50;1.90;;;9.60;98.80;;;;;;5002003;28;20047;-17
2023/10/18 04:34:22;;;;;;;4.00;2.15;;;9.60;98.80;;;;;;4989739;28;20064;-17
2023/10/18 04:36:51;;;;;;;3.30;1.80;;;9.60;98.80;;;;;;5001016;28;20034;-18
2023/10/18 04:39:20;;;;;;;3.20;1.88;;;9.60;98.80;;;;;;4999145;28;20482;-17
2023/10/18 04:41:45;;;;;;;3.45;1.90;;;9.50;98.80;;;;;;4990256;28;20033;-17
2023/10/18 04:44:18;;;;;;;3.47;2.00;;;9.50;98.80;;;;;;4990754;28;20057;-17
2023/10/18 04:46:47;;;;;;;3.30;1.80;;;9.50;98.90;;;;;;5002237;28;20057;-17
2023/10/18 04:54:11;;;;;;;2.85;1.75;;;9.40;98.80;;;;;;5005226;28;20037;-17
2023/10/18 04:56:38;;;;;;;2.80;1.97;;;8.30;99.90;;;;;;5009315;28;20049;-17
2023/10/18 05:04:20;;;;;;;3.03;1.83;;;9.40;98.90;;;;;;4986215;28;20035;-17
2023/10/18 05:06:56;;;;;;;4.35;1.90;;;9.40;98.90;;;;;;4991585;28;20056;-17
2023/10/18 05:09:31;;;;;;;3.60;1.90;;;9.40;98.90;;;;;;4987022;28;20463;-18
2023/10/18 05:11:58;;;;;;;3.33;1.92;;;9.40;99.00;;;;;;4999202;28;20163;-17
2023/10/18 05:14:50;;;;;;;3.78;1.85;;;9.40;99.00;;;;;;4965558;28;20525;-17
2023/10/18 05:17:23;;;;;;;4.00;1.88;;;11.10;99.90;;;;;;5000914;28;20211;-18
2023/10/18 05:19:50;;;;;;;3.25;1.90;;;9.30;99.10;;;;;;4992138;28;20080;-17
2023/10/18 05:22:20;;;;;;;3.60;2.10;;;9.30;99.10;;;;;;4990542;28;20341;-17
2023/10/18 05:25:48;;;;;;;3.47;1.90;;;9.30;99.20;;;;;;5020450;28;20099;-17
2023/10/18 05:43:59;;;;;;;3.50;2.20;;;9.30;99.30;;;;;;4979988;28;20025;-17
2023/10/18 05:46:28;;;;;;;4.23;2.20;;;9.40;99.40;;;;;;5000919;28;20570;-19
2023/10/18 05:48:57;;;;;;;3.63;2.28;;;9.30;99.30;;;;;;5006147;28;20029;-17
2023/10/18 05:53:59;;;;;;;4.22;2.17;;;9.40;99.40;;;;;;4995465;28;20030;-17
2023/10/18 05:56:34;;;;;;;3.53;2.00;;;9.40;99.40;;;;;;4999190;28;21374;-17
2023/10/18 06:01:51;;;;;;;4.20;2.20;;;9.40;99.40;;;;;;5007319;28;20045;-17
2023/10/18 06:07:18;;;;;;;5.18;2.30;;;9.40;99.50;;;;;;4969959;28;20139;-16
2023/10/18 06:09:48;;;;;;;3.15;2.10;;;9.40;99.40;;;;;;5007179;28;20729;-16
2023/10/18 06:12:21;;;;;;;4.87;2.07;;;9.40;99.50;;;;;;5000068;28;20032;-16
2023/10/18 06:14:47;;;;;;;4.78;2.13;;;9.40;99.50;;;;;;4984129;28;20676;-16
2023/10/18 06:17:12;;;;;;;3.28;1.98;;;9.40;99.50;;;;;;5007366;28;20099;-17
2023/10/18 06:19:39;;;;;;;4.07;2.20;;;9.40;99.60;;;;;;5007336;28;20030;-16
2023/10/18 06:22:15;;;;;;;3.47;1.80;;;9.40;99.70;;;;;;5004404;28;20033;-16
2023/10/18 06:24:43;;;;;;;3.22;1.70;;;9.40;99.70;;;;;;4988319;28;20030;-16
2023/10/18 06:27:15;;;;;;;3.05;1.55;;;9.40;99.80;;;;;;4999604;28;20650;-16
2023/10/18 06:29:42;;;;;;;4.47;1.97;;;9.40;99.90;;;;;;4981962;28;20432;-16
2023/10/18 06:32:13;;;;;;;3.97;2.00;;;9.50;99.90;;;;;;5004822;28;20658;-16
2023/10/18 06:34:43;;;;;;;3.35;2.00;;;9.40;99.90;;;;;;5007461;28;20041;-16
2023/10/18 06:37:22;;;;;;;4.20;2.05;;;9.50;99.90;;;;;;4990225;28;20057;-16
2023/10/18 06:39:53;;;;;;;4.00;2.00;;;9.60;99.90;;;;;;4995043;28;20103;-16
2023/10/18 06:42:21;;;;;;;3.80;2.20;;;9.60;99.90;;;;;;4992858;28;20807;-16
2023/10/18 06:44:48;;;;;;;3.70;1.92;;;9.60;99.90;;;;;;5003643;28;20115;-16
2023/10/18 06:47:13;;;;;;;3.53;1.70;;;9.60;99.90;;;;;;4967806;28;20175;-16
2023/10/18 06:49:42;;;;;;;2.47;1.67;;;9.70;99.90;;;;;;5008281;28;20033;-16
2023/10/18 06:52:09;;;;;;;3.55;2.00;;;9.70;99.90;;;;;;5006297;28;20041;-16
2023/10/18 06:54:39;;;;;;;3.90;2.10;;;9.80;99.90;;;;;;4992453;28;20386;-16
2023/10/18 06:57:18;;;;;;;3.72;2.10;;;9.80;99.90;;;;;;4991097;28;20152;-16
2023/10/18 06:59:48;;;;;;;2.95;1.95;;;9.90;99.90;;;;;;4989394;28;20068;-16
2023/10/18 07:02:14;;;;;;;3.87;1.87;;;9.90;99.90;;;;;;4970677;28;20132;-16
2023/10/18 07:05:03;;;;;;;4.18;2.15;;;9.90;99.90;;;;;;4990923;28;20806;-16
2023/10/18 07:07:26;;;;;;;3.05;1.90;;;10.00;99.90;;;;;;4978405;28;20430;-17
2023/10/18 07:09:53;;;;;;;3.63;2.27;;;10.00;99.90;;;;;;4994285;28;20099;-17
2023/10/18 07:12:27;;;;;;;3.47;2.10;;;10.10;99.90;;;;;;5008212;28;20905;-17
2023/10/18 07:14:56;;;;;;;4.15;1.90;;;10.10;99.90;;;;;;5002594;28;20037;-17
2023/10/18 07:17:24;;;;;;;3.97;1.95;;;10.10;99.90;;;;;;4972821;28;20037;-17
2023/10/18 07:19:55;;;;;;;3.53;1.90;;;10.20;99.90;;;;;;5006337;28;20419;-18
2023/10/18 07:22:39;;;;;;;3.20;1.90;;;10.20;99.90;;;;;;4990577;28;20034;-17
2023/10/18 07:25:08;;;;;;;3.20;1.57;;;10.30;99.90;;;;;;4997010;28;20030;-17
2023/10/18 07:27:36;;;;;;;3.22;1.77;;;10.30;99.90;;;;;;5006395;28;20388;-17
2023/10/18 07:30:03;;;;;;;3.20;1.60;;;10.40;99.90;;;;;;5006419;28;20533;-17
2023/10/18 07:32:29;;;;;;;4.22;2.20;;;10.50;99.90;;;;;;4992059;28;20216;-17
2023/10/18 07:34:57;;;;;;;6.10;1.97;;;10.70;99.90;;;;;;4999051;28;20409;-17
2023/10/18 07:37:24;;;;;;;3.95;2.40;;;10.90;99.90;;;;;;4992407;28;20098;-17
2023/10/18 07:40:10;;;;;;;3.08;1.92;;;11.20;99.90;;;;;;5007810;28;20135;-17
2023/10/18 07:42:40;;;;;;;3.17;2.08;;;11.40;99.90;;;;;;4988248;28;20036;-17
2023/10/18 07:45:08;;;;;;;3.07;1.80;;;11.70;99.90;;;;;;5000239;28;20025;-17
2023/10/18 07:47:37;;;;;;;3.53;1.77;;;11.90;99.90;;;;;;5005601;28;20018;-17
2023/10/18 07:52:57;;;;;;;2.78;1.73;;;12.20;99.90;;;;;;4995575;28;20254;-17
2023/10/18 07:55:23;;;;;;;3.28;1.90;;;12.40;99.90;;;;;;5009875;28;20071;-17
2023/10/18 07:57:50;;;;;;;2.90;1.80;;;12.50;99.90;;;;;;4990540;28;20134;-17
2023/10/18 08:00:23;;;;;;;2.00;1.50;;;12.50;99.90;;;;;;5009052;28;20033;-17
2023/10/18 08:02:52;;;;;;;2.67;1.60;;;12.50;99.90;;;;;;5004709;28;20241;-17
2023/10/18 08:05:19;;;;;;;3.50;1.80;;;12.50;99.90;;;;;;4986175;28;20060;-17
2023/10/18 08:07:49;;;;;;;2.90;1.90;;;12.60;99.90;;;;;;4996451;28;20045;-18
2023/10/18 08:10:19;;;;;;;3.47;1.80;;;12.60;99.90;;;;;;5013285;28;20489;-17
2023/10/18 08:13:08;;;;;;;3.20;1.60;;;12.60;99.90;;;;;;4988990;28;20080;-17
2023/10/18 08:15:35;;;;;;;2.55;1.63;;;12.60;99.90;;;;;;5003777;28;20026;-18
2023/10/18 08:18:42;;;;;;;2.72;1.77;;;12.70;99.90;;;;;;5002300;28;20079;-17
2023/10/18 08:26:03;;;;;;;3.75;2.10;;;12.80;99.90;;;;;;5005249;28;20025;-16
2023/10/18 08:28:38;;;;;;;3.17;1.85;;;12.90;99.90;;;;;;5007531;28;20116;-16
2023/10/18 08:31:26;;;;;;;2.95;1.70;;;12.90;99.90;;;;;;4993876;28;20037;-16
2023/10/18 08:33:56;;;;;;;2.97;1.50;;;13.00;99.90;;;;;;5003624;28;20038;-16
2023/10/18 08:36:30;;;;;;;2.73;1.70;;;13.00;99.90;;;;;;4983884;28;20490;-16
2023/10/18 08:38:57;;;;;;;2.67;2.00;;;13.10;99.90;;;;;;4994265;28;20026;-16
2023/10/18 08:41:37;;;;;;;3.13;2.10;;;13.10;99.90;;;;;;5010219;28;20443;-16
2023/10/18 08:44:19;;;;;;;2.08;1.42;;;13.20;99.90;;;;;;4992916;28;20305;-16
2023/10/18 08:46:55;;;;;;;2.90;1.55;;;13.30;99.90;;;;;;5004692;28;20947;-16
2023/10/18 08:49:22;;;;;;;3.03;2.00;;;13.40;99.90;;;;;;5003568;28;20796;-16
2023/10/18 08:51:56;;;;;;;3.20;1.80;;;13.60;99.90;;;;;;4972674;28;20029;-16
2023/10/18 08:54:24;;;;;;;2.92;1.70;;;13.70;99.90;;;;;;4997118;28;20037;-16
2023/10/18 08:56:51;;;;;;;2.28;1.48;;;14.00;99.90;;;;;;4999176;28;20446;-16
2023/10/18 08:59:18;;;;;;;2.75;1.70;;;14.10;99.90;;;;;;4994180;28;20038;-16
2023/10/18 09:04:31;;;;;;;2.20;1.45;;;14.60;99.90;;;;;;5006188;28;20033;-16
2023/10/18 09:07:00;;;;;;;2.33;1.60;;;14.80;99.90;;;;;;4990530;28;20411;-16
2023/10/18 09:09:35;;;;;;;2.88;1.70;;;15.10;99.90;;;;;;5001664;28;20250;-16
2023/10/18 09:12:14;;;;;;;1.80;1.38;;;15.40;99.90;;;;;;5013130;28;20033;-16
2023/10/18 09:14:50;;;;;;;3.53;1.53;;;15.70;99.90;;;;;;5000460;28;20104;-16
2023/10/18 09:17:21;;;;;;;2.78;1.80;;;16.00;99.90;;;;;;5011215;28;20041;-16
2023/10/18 09:19:51;;;;;;;3.47;1.73;;;16.30;99.90;;;;;;5007267;28;20139;-16
2023/10/18 09:22:17;;;;;;;2.38;1.63;;;16.50;99.90;;;;;;4991918;28;20067;-16
2023/10/18 09:24:43;;;;;;;2.23;1.67;;;16.70;99.90;;;;;;4984819;28;20029;-14
2023/10/18 09:27:09;;;;;;;2.30;1.60;;;17.00;99.90;;;;;;5009922;28;20114;-14
2023/10/18 09:29:36;;;;;;;2.50;1.63;;;17.30;99.90;;;;;;4994948;28;20025;-15
2023/10/18 09:32:04;;;;;;;2.40;1.70;;;17.20;99.90;;;;;;5006198;28;20054;-15
2023/10/18 09:34:38;;;;;;;2.78;1.40;;;17.40;99.90;;;;;;5009737;28;20034;-16
2023/10/18 09:37:04;;;;;;;2.05;1.42;;;17.50;99.90;;;;;;4988269;28;20061;-15
2023/10/18 09:39:42;;;;;;;1.80;1.40;;;17.80;99.90;;;;;;5014277;28;20022;-16
2023/10/18 09:42:12;;;;;;;2.45;1.40;;;18.00;99.90;;;;;;4998705;28;20372;-16
2023/10/18 09:44:42;;;;;;;2.47;1.50;;;18.40;99.90;;;;;;4997636;28;20430;-16
2023/10/18 09:47:08;;;;;;;2.00;1.50;;;18.80;99.90;;;;;;5009388;28;20034;-15
2023/10/18 09:49:34;;;;;;;2.00;1.45;;;19.20;99.90;;;;;;4995070;28;20038;-15
2023/10/18 09:52:04;;;;;;;2.05;1.48;;;19.40;99.90;;;;;;5008009;28;20095;-15
2023/10/18 09:54:36;;;;;;;1.90;1.30;;;19.80;99.90;;;;;;4992780;28;20041;-16
2023/10/18 09:57:02;;;;;;;2.27;1.80;;;20.10;99.90;;;;;;5010306;28;20658;-15
2023/10/18 09:59:37;;;;;;;4.93;1.58;;;20.30;99.90;;;;;;4995859;28;20041;-16
2023/10/18 10:02:09;;;;;;;2.60;1.70;;;20.50;99.90;;;;;;5025462;28;20634;-15
2023/10/18 10:04:39;;;;;;;3.00;1.60;;;20.80;99.90;;;;;;5011602;28;20030;-16
2023/10/18 10:07:39;;;;;;;3.50;1.67;;;21.00;99.90;;;;;;5004506;28;20474;-15
2023/10/18 10:10:07;;;;;;;2.17;1.40;;;21.30;99.90;;;;;;4981756;28;20064;-15
2023/10/18 10:12:34;;;;;;;1.80;1.40;;;21.60;99.90;;;;;;5012509;28;20506;-15
2023/10/18 10:15:00;;;;;;;2.42;1.50;;;21.80;99.90;;;;;;4998308;28;20191;-15
2023/10/18 10:17:29;;;;;;;2.28;1.50;;;22.00;99.90;;;;;;5012093;28;20487;-16
2023/10/18 10:20:01;;;;;;;2.30;1.70;;;22.00;99.80;;;;;;5010746;28;20022;-15
2023/10/18 10:22:27;;;;;;;2.40;1.53;;;22.20;99.90;;;;;;5007685;28;20052;-15
2023/10/18 10:25:04;;;;;;;2.70;1.40;;;22.30;99.90;;;;;;4988927;28;20476;-15
2023/10/18 10:32:55;;;;;;;1.98;1.50;;;22.90;99.40;;;;;;5008247;28;20029;-15
2023/10/18 10:35:28;;;;;;;2.73;1.60;;;23.00;99.60;;;;;;5005848;28;20034;-15
2023/10/18 10:38:06;;;;;;;3.03;1.60;;;23.20;99.60;;;;;;5003960;28;20018;-15
2023/10/18 10:43:09;;;;;;;2.53;1.55;;;23.30;98.70;;;;;;4995035;28;20025;-15
2023/10/18 10:48:17;;;;;;;1.90;1.33;;;23.20;95.50;;;;;;5006253;28;20017;-15
2023/10/18 10:50:50;;;;;;;1.75;1.20;;;23.10;95.70;;;;;;5006758;28;20025;-15
2023/10/18 10:53:50;;;;;;;2.45;1.48;;;23.00;97.50;;;;;;4984095;28;20029;-15
2023/10/18 10:56:30;;;;;;;1.98;1.40;;;22.80;94.70;;;;;;4987316;28;20026;-15
2023/10/18 11:04:29;;;;;;;3.17;1.60;;;22.60;96.70;;;;;;5007537;28;20476;-15
2023/10/18 11:06:57;;;;;;;3.08;1.58;;;22.60;99.00;;;;;;4995170;28;20057;-16
2023/10/18 11:09:33;;;;;;;2.15;1.40;;;22.70;99.00;;;;;;5005200;28;20038;-15
2023/10/18 11:12:11;;;;;;;3.20;1.67;;;22.80;97.30;;;;;;4984679;28;20057;-16
2023/10/18 11:14:37;;;;;;;2.60;1.43;;;22.80;98.30;;;;;;4994044;28;20265;-15
2023/10/18 11:19:43;;;;;;;2.25;1.80;;;23.20;99.80;;;;;;5002314;28;20702;-16
2023/10/18 11:22:19;;;;;;;2.63;1.50;;;23.40;99.90;;;;;;5003098;28;20046;-16
2023/10/18 11:24:54;;;;;;;2.55;1.50;;;23.60;99.70;;;;;;5004315;28;20783;-16
2023/10/18 11:27:33;;;;;;;2.43;1.60;;;23.70;97.70;;;;;;4984895;28;20041;-15
2023/10/18 11:32:48;;;;;;;2.10;1.38;;;23.50;97.10;;;;;;4990076;28;20053;-16
2023/10/18 11:38:10;;;;;;;2.28;1.50;;;23.10;94.50;;;;;;5003268;28;20076;-15
2023/10/18 11:40:40;;;;;;;1.50;1.30;;;22.90;96.30;;;;;;4982104;28;20386;-16
2023/10/18 11:43:07;;;;;;;3.25;1.30;;;22.80;97.40;;;;;;4984575;28;20038;-15
2023/10/18 11:45:36;;;;;;;2.28;1.30;;;22.70;97.50;;;;;;4986811;28;20026;-15
2023/10/18 11:48:03;;;;;;;2.53;1.33;;;22.60;97.60;;;;;;4991267;28;20471;-15
2023/10/18 11:50:42;;;;;;;2.28;1.30;;;22.60;97.60;;;;;;5006187;28;20663;-15
2023/10/18 11:53:12;;;;;;;2.30;1.47;;;22.60;95.70;;;;;;5003708;28;20534;-15
2023/10/18 11:55:58;;;;;;;2.72;1.30;;;22.50;96.40;;;;;;5023610;28;20029;-15
2023/10/18 11:58:29;;;;;;;2.60;1.38;;;22.40;95.40;;;;;;4981381;28;20048;-16
2023/10/18 12:01:14;;;;;;;2.33;1.50;;;22.30;96.70;;;;;;5007790;28;20153;-14
2023/10/18 12:03:43;;;;;;;2.53;1.50;;;22.40;98.00;;;;;;4988665;28;20065;-14
2023/10/18 12:06:11;;;;;;;1.87;1.20;;;22.40;98.50;;;;;;5006450;28;20367;-14
2023/10/18 12:08:47;;;;;;;1.98;1.23;;;22.50;98.20;;;;;;5003160;28;20628;-14
2023/10/18 12:11:14;;;;;;;2.95;1.40;;;22.50;96.90;;;;;;5010135;28;20345;-14
2023/10/18 12:13:41;;;;;;;2.72;1.52;;;22.60;98.10;;;;;;4989687;28;20037;-14
2023/10/18 12:16:08;;;;;;;2.05;1.40;;;22.60;98.10;;;;;;4986157;28;20079;-14
2023/10/18 12:18:35;;;;;;;2.90;1.40;;;22.70;98.20;;;;;;5004306;28;20367;-14
2023/10/18 12:21:01;;;;;;;2.25;1.48;;;22.80;98.60;;;;;;4991056;28;20036;-14
2023/10/18 12:23:27;;;;;;;2.25;1.70;;;22.90;99.50;;;;;;5008889;28;20044;-14
2023/10/18 12:25:53;;;;;;;2.97;1.50;;;23.20;99.90;;;;;;4960682;28;20121;-14
2023/10/18 12:28:27;;;;;;;3.80;1.58;;;23.40;99.90;;;;;;5003736;28;20132;-14
2023/10/18 12:30:55;;;;;;;2.67;1.63;;;23.70;99.90;;;;;;4970326;28;20632;-14
2023/10/18 12:33:27;;;;;;;2.67;1.60;;;24.00;99.90;;;;;;4995590;28;20104;-15
2023/10/18 12:35:56;;;;;;;2.78;1.50;;;24.10;98.60;;;;;;4993437;28;20475;-14
2023/10/18 12:38:31;;;;;;;2.72;1.60;;;24.20;97.50;;;;;;5004311;28;20846;-14
2023/10/18 12:41:18;;;;;;;2.40;1.50;;;24.10;96.40;;;;;;5000813;28;20539;-14
2023/10/18 12:43:47;;;;;;;2.57;1.50;;;23.90;94.90;;;;;;5005082;28;20033;-14
2023/10/18 12:46:17;;;;;;;2.00;1.48;;;23.70;95.20;;;;;;4987361;28;20026;-14
2023/10/18 12:48:49;;;;;;;3.10;1.63;;;23.40;95.00;;;;;;5005410;28;20632;-14
2023/10/18 12:51:17;;;;;;;2.50;1.38;;;23.20;94.80;;;;;;4985310;28;20022;-14
2023/10/18 12:53:47;;;;;;;1.70;1.30;;;23.00;94.80;;;;;;5004741;28;20353;-14
2023/10/18 12:56:31;;;;;;;1.80;1.40;;;22.80;95.10;;;;;;4991590;28;20474;-14
2023/10/18 12:58:58;;;;;;;3.80;1.55;;;22.60;95.20;;;;;;4993676;28;20037;-14
2023/10/18 13:01:32;;;;;;;2.53;1.40;;;22.50;95.70;;;;;;4969840;28;20038;-15
2023/10/18 13:03:59;;;;;;;1.58;1.30;;;22.40;95.10;;;;;;5008544;28;20033;-14
2023/10/18 13:06:35;;;;;;;2.83;1.60;;;22.40;95.90;;;;;;4991453;28;20749;-14
2023/10/18 13:14:29;;;;;;;2.60;1.50;;;22.50;95.00;;;;;;4998582;28;20033;-14
2023/10/18 13:16:56;;;;;;;2.95;1.60;;;22.50;96.00;;;;;;4989935;28;20034;-14
2023/10/18 13:19:25;;;;;;;3.08;1.50;;;22.50;95.80;;;;;;4967192;28;20149;-14
2023/10/18 13:21:51;;;;;;;2.47;1.60;;;22.60;95.70;;;;;;4988149;28;20087;-14
2023/10/18 13:24:17;;;;;;;3.15;1.38;;;22.50;95.50;;;;;;5011213;28;20025;-14
2023/10/18 13:26:47;;;;;;;2.38;1.40;;;22.50;95.20;;;;;;5004743;28;20033;-14
2023/10/18 13:29:29;;;;;;;1.75;1.50;;;22.40;94.50;;;;;;4991357;28;20108;-14
2023/10/18 13:31:59;;;;;;;2.30;1.50;;;22.30;94.90;;;;;;5010091;28;20029;-14
2023/10/18 13:34:32;;;;;;;2.00;1.40;;;22.20;94.90;;;;;;4996636;28;20970;-14
2023/10/18 13:37:03;;;;;;;3.10;1.60;;;22.20;95.00;;;;;;4996092;28;20034;-14
2023/10/18 13:39:29;;;;;;;2.38;1.52;;;22.20;95.10;;;;;;5008364;28;20047;-14
2023/10/18 13:41:55;;;;;;;2.70;1.70;;;22.10;95.20;;;;;;5007289;28;20052;-14
2023/10/18 13:44:23;;;;;;;2.33;1.42;;;22.10;95.30;;;;;;4983285;28;20036;-14
2023/10/18 13:46:55;;;;;;;3.20;1.60;;;22.10;95.20;;;;;;4988645;28;21110;-14
2023/10/18 13:49:24;;;;;;;2.10;1.40;;;22.10;94.90;;;;;;4996124;28;21530;-14
2023/10/18 13:51:50;;;;;;;2.83;1.58;;;22.10;94.90;;;;;;4992874;28;20021;-14
2023/10/18 13:54:16;;;;;;;5.53;1.60;;;22.10;94.70;;;;;;5006251;28;20045;-14
2023/10/18 13:56:43;;;;;;;3.67;1.55;;;22.00;94.60;;;;;;5012618;28;20036;-14
2023/10/18 13:59:09;;;;;;;2.47;1.65;;;21.90;94.60;;;;;;4990435;28;20458;-14
2023/10/18 14:01:38;;;;;;;2.40;1.33;;;21.80;94.40;;;;;;4989724;28;20056;-14
2023/10/18 14:04:05;;;;;;;2.20;1.60;;;21.80;94.50;;;;;;4995323;28;20033;-14
2023/10/18 14:06:32;;;;;;;3.00;1.75;;;21.60;94.30;;;;;;4994084;28;20049;-14
2023/10/18 14:08:58;;;;;;;3.70;1.60;;;21.60;94.30;;;;;;5005975;28;20078;-14
2023/10/18 14:11:25;;;;;;;2.45;1.48;;;21.50;94.20;;;;;;5008198;28;20502;-14
2023/10/18 14:13:55;;;;;;;2.20;1.30;;;21.50;94.30;;;;;;4998347;28;20021;-14
2023/10/18 14:16:21;;;;;;;1.73;1.27;;;21.40;94.20;;;;;;5008998;28;20077;-14
2023/10/18 14:18:48;;;;;;;1.80;1.40;;;21.30;94.20;;;;;;4972874;28;20315;-13
2023/10/18 14:21:14;;;;;;;1.90;1.38;;;21.20;94.10;;;;;;4998385;28;20072;-15
2023/10/18 14:23:45;;;;;;;3.58;1.67;;;21.10;94.20;;;;;;4986084;28;20026;-15
2023/10/18 14:26:12;;;;;;;2.63;1.33;;;21.00;94.20;;;;;;5009070;28;20021;-15